Gravelly, Arkansas
Current Conditions -  °F | °C
As of 10:53 AM on Friday 28 Nov 2014 (Local Time) from KMWT Reporting Station
Clear Clear  
Wind Chill: 51°   Ceiling: Unl
Heat Index: 51°   Visibility: 10mi
Dew Point: 31°   Wind: 6mph
Humidity: 46%   Direction: NA
Pressure: 30.24"   Gusts: NA
Location:  34.88°N, 93.69°W
Report Text: KMWT 281653Z AUTO VRB05KT 10SM CLR 11/M01 A3024 RMK AO2 SLP247 T01061006
Loading
Personal Weather Stations






























Interactive Weather Map New forecast layout! Learn more

10-Day Weather Forecast

Advertisements
Track Severe Weather on mobile